sensor_id;sensor_type;location;lat;lon;timestamp;pressure;altitude;pressure_sealevel;temperature;humidity
44839;BME280;30576;42.098;24.876;2022-09-30T00:01:23;99198.00;;;18.39;63.71
44839;BME280;30576;42.098;24.876;2022-09-30T00:03:51;99224.28;;;18.63;63.91
44839;BME280;30576;42.098;24.876;2022-09-30T00:06:16;99222.19;;;18.52;63.98
44839;BME280;30576;42.098;24.876;2022-09-30T00:08:42;99252.72;;;18.64;64.07
44839;BME280;30576;42.098;24.876;2022-09-30T00:11:11;99260.13;;;18.74;64.10
44839;BME280;30576;42.098;24.876;2022-09-30T00:13:39;99246.09;;;18.71;64.00
44839;BME280;30576;42.098;24.876;2022-09-30T00:16:06;99275.66;;;18.68;64.31
44839;BME280;30576;42.098;24.876;2022-09-30T00:18:32;99274.19;;;18.29;65.95
44839;BME280;30576;42.098;24.876;2022-09-30T00:20:58;99285.25;;;18.38;65.85
44839;BME280;30576;42.098;24.876;2022-09-30T00:23:24;99273.50;;;18.25;65.56
44839;BME280;30576;42.098;24.876;2022-09-30T00:25:50;99206.50;;;17.79;64.80
44839;BME280;30576;42.098;24.876;2022-09-30T00:28:21;99266.63;;;18.03;65.26
44839;BME280;30576;42.098;24.876;2022-09-30T00:30:46;99258.41;;;17.91;65.13
44839;BME280;30576;42.098;24.876;2022-09-30T00:33:12;99258.22;;;18.11;64.65
44839;BME280;30576;42.098;24.876;2022-09-30T00:35:37;99263.91;;;18.21;64.93
44839;BME280;30576;42.098;24.876;2022-09-30T00:38:03;99254.94;;;18.06;65.08
44839;BME280;30576;42.098;24.876;2022-09-30T00:40:28;99275.56;;;18.20;65.06
44839;BME280;30576;42.098;24.876;2022-09-30T00:42:54;99274.69;;;18.02;66.05
44839;BME280;30576;42.098;24.876;2022-09-30T00:45:21;99232.56;;;17.74;65.65
44839;BME280;30576;42.098;24.876;2022-09-30T00:47:55;99298.69;;;18.19;65.31
44839;BME280;30576;42.098;24.876;2022-09-30T00:55:28;99313.31;;;18.12;65.83
44839;BME280;30576;42.098;24.876;2022-09-30T00:57:55;99245.75;;;17.77;66.17
44839;BME280;30576;42.098;24.876;2022-09-30T01:00:21;99305.88;;;18.01;66.25
44839;BME280;30576;42.098;24.876;2022-09-30T01:02:47;99273.53;;;17.90;66.23
44839;BME280;30576;42.098;24.876;2022-09-30T01:05:14;99314.66;;;18.03;66.50
44839;BME280;30576;42.098;24.876;2022-09-30T01:07:39;99279.94;;;17.86;66.75
44839;BME280;30576;42.098;24.876;2022-09-30T01:10:06;99285.69;;;17.96;66.36
44839;BME280;30576;42.098;24.876;2022-09-30T01:12:31;99281.97;;;17.81;66.57
44839;BME280;30576;42.098;24.876;2022-09-30T01:14:59;99295.00;;;17.87;66.66
44839;BME280;30576;42.098;24.876;2022-09-30T01:25:58;99292.88;;;17.41;68.54
44839;BME280;30576;42.098;24.876;2022-09-30T01:39:56;99273.59;;;17.17;69.59
44839;BME280;30576;42.098;24.876;2022-09-30T01:42:31;99326.41;;;17.45;69.84
44839;BME280;30576;42.098;24.876;2022-09-30T01:45:11;99321.00;;;17.47;69.56
44839;BME280;30576;42.098;24.876;2022-09-30T01:47:42;99290.69;;;16.75;71.23
44839;BME280;30576;42.098;24.876;2022-09-30T01:50:22;99322.78;;;17.10;70.75
44839;BME280;30576;42.098;24.876;2022-09-30T01:58:11;99304.25;;;16.89;70.69
44839;BME280;30576;42.098;24.876;2022-09-30T02:00:41;99296.66;;;16.80;70.29
44839;BME280;30576;42.098;24.876;2022-09-30T02:03:16;99295.41;;;16.89;70.13
44839;BME280;30576;42.098;24.876;2022-09-30T02:05:50;99331.91;;;17.06;70.75
44839;BME280;30576;42.098;24.876;2022-09-30T02:08:27;99304.59;;;17.00;70.17
44839;BME280;30576;42.098;24.876;2022-09-30T02:11:11;99298.16;;;16.86;70.22
44839;BME280;30576;42.098;24.876;2022-09-30T02:13:59;99341.53;;;17.08;70.59
44839;BME280;30576;42.098;24.876;2022-09-30T02:16:37;99339.50;;;16.94;71.00
44839;BME280;30576;42.098;24.876;2022-09-30T02:19:13;99337.19;;;16.87;70.92
44839;BME280;30576;42.098;24.876;2022-09-30T02:21:44;99319.78;;;16.40;71.95
44839;BME280;30576;42.098;24.876;2022-09-30T02:24:15;99304.50;;;16.24;71.51
44839;BME280;30576;42.098;24.876;2022-09-30T02:26:44;99322.66;;;16.35;71.52
44839;BME280;30576;42.098;24.876;2022-09-30T02:29:24;99313.75;;;16.36;72.55
44839;BME280;30576;42.098;24.876;2022-09-30T02:31:55;99338.84;;;16.70;72.29
44839;BME280;30576;42.098;24.876;2022-09-30T02:34:26;99305.41;;;16.44;72.19
44839;BME280;30576;42.098;24.876;2022-09-30T02:39:45;99319.66;;;16.62;72.35
44839;BME280;30576;42.098;24.876;2022-09-30T02:42:17;99321.53;;;16.79;71.74
44839;BME280;30576;42.098;24.876;2022-09-30T02:44:48;99309.47;;;16.72;71.59
44839;BME280;30576;42.098;24.876;2022-09-30T02:50:05;99284.91;;;16.46;71.21
44839;BME280;30576;42.098;24.876;2022-09-30T02:52:45;99352.00;;;16.73;71.17
44839;BME280;30576;42.098;24.876;2022-09-30T02:57:58;99345.19;;;16.87;70.02
44839;BME280;30576;42.098;24.876;2022-09-30T03:00:25;99236.28;;;16.22;70.32
44839;BME280;30576;42.098;24.876;2022-09-30T03:02:58;99304.28;;;16.69;70.11
44839;BME280;30576;42.098;24.876;2022-09-30T03:05:27;99340.53;;;16.92;70.03
44839;BME280;30576;42.098;24.876;2022-09-30T03:07:54;99311.47;;;16.67;70.39
44839;BME280;30576;42.098;24.876;2022-09-30T03:10:20;99337.59;;;16.58;71.41
44839;BME280;30576;42.098;24.876;2022-09-30T03:16:00;99354.47;;;16.57;72.01
44839;BME280;30576;42.098;24.876;2022-09-30T03:18:40;99362.88;;;16.48;72.33
44839;BME280;30576;42.098;24.876;2022-09-30T03:31:51;99379.00;;;16.45;73.53
44839;BME280;30576;42.098;24.876;2022-09-30T03:34:40;99348.28;;;16.38;73.41
44839;BME280;30576;42.098;24.876;2022-09-30T03:37:29;99343.19;;;16.52;72.79
44839;BME280;30576;42.098;24.876;2022-09-30T03:40:13;99334.34;;;16.52;72.17
44839;BME280;30576;42.098;24.876;2022-09-30T03:42:55;99375.69;;;16.40;73.10
44839;BME280;30576;42.098;24.876;2022-09-30T03:48:03;99376.66;;;16.37;73.32
44839;BME280;30576;42.098;24.876;2022-09-30T03:50:32;99385.44;;;15.98;74.33
44839;BME280;30576;42.098;24.876;2022-09-30T03:52:59;99351.72;;;15.76;74.59
44839;BME280;30576;42.098;24.876;2022-09-30T03:55:27;99380.97;;;15.99;74.38
44839;BME280;30576;42.098;24.876;2022-09-30T03:57:52;99378.31;;;15.99;74.75
44839;BME280;30576;42.098;24.876;2022-09-30T04:00:18;99339.97;;;15.84;74.90
44839;BME280;30576;42.098;24.876;2022-09-30T04:02:44;99379.34;;;15.96;75.49
44839;BME280;30576;42.098;24.876;2022-09-30T04:05:10;99385.59;;;16.16;74.60
44839;BME280;30576;42.098;24.876;2022-09-30T04:07:36;99395.16;;;16.20;75.26
44839;BME280;30576;42.098;24.876;2022-09-30T04:10:02;99355.72;;;16.09;74.81
44839;BME280;30576;42.098;24.876;2022-09-30T04:12:27;99390.44;;;16.26;74.07
44839;BME280;30576;42.098;24.876;2022-09-30T04:14:53;99351.44;;;16.05;73.99
44839;BME280;30576;42.098;24.876;2022-09-30T04:17:18;99407.41;;;16.44;73.36
44839;BME280;30576;42.098;24.876;2022-09-30T04:19:44;99396.66;;;16.27;73.42
44839;BME280;30576;42.098;24.876;2022-09-30T04:22:09;99406.59;;;16.22;74.22
44839;BME280;30576;42.098;24.876;2022-09-30T04:24:35;99398.03;;;16.15;73.99
44839;BME280;30576;42.098;24.876;2022-09-30T04:27:01;99390.50;;;16.04;73.60
44839;BME280;30576;42.098;24.876;2022-09-30T04:29:27;99383.28;;;15.86;73.03
44839;BME280;30576;42.098;24.876;2022-09-30T04:31:53;99428.16;;;16.16;72.36
44839;BME280;30576;42.098;24.876;2022-09-30T04:34:18;99435.59;;;16.07;72.57
44839;BME280;30576;42.098;24.876;2022-09-30T04:36:44;99390.34;;;15.65;71.58
44839;BME280;30576;42.098;24.876;2022-09-30T04:39:09;99373.16;;;15.29;72.71
44839;BME280;30576;42.098;24.876;2022-09-30T04:41:35;99419.03;;;15.56;72.94
44839;BME280;30576;42.098;24.876;2022-09-30T04:44:01;99442.72;;;15.85;72.72
44839;BME280;30576;42.098;24.876;2022-09-30T04:46:34;99410.84;;;15.61;72.62
44839;BME280;30576;42.098;24.876;2022-09-30T04:49:04;99431.94;;;15.66;72.36
44839;BME280;30576;42.098;24.876;2022-09-30T04:51:29;99397.19;;;15.26;72.66
44839;BME280;30576;42.098;24.876;2022-09-30T04:53:55;99426.81;;;15.39;72.92
44839;BME280;30576;42.098;24.876;2022-09-30T04:56:21;99403.91;;;15.35;72.78
44839;BME280;30576;42.098;24.876;2022-09-30T04:58:48;99414.38;;;15.39;72.99
44839;BME280;30576;42.098;24.876;2022-09-30T05:01:15;99439.47;;;15.32;74.35
44839;BME280;30576;42.098;24.876;2022-09-30T05:03:41;99436.34;;;15.45;73.96
44839;BME280;30576;42.098;24.876;2022-09-30T05:06:08;99464.28;;;15.79;72.98
44839;BME280;30576;42.098;24.876;2022-09-30T05:08:34;99465.94;;;15.81;73.18
44839;BME280;30576;42.098;24.876;2022-09-30T05:11:03;99475.09;;;15.96;73.28
44839;BME280;30576;42.098;24.876;2022-09-30T05:13:31;99487.00;;;16.08;73.16
44839;BME280;30576;42.098;24.876;2022-09-30T05:15:56;99457.72;;;15.87;73.72
44839;BME280;30576;42.098;24.876;2022-09-30T05:18:22;99459.06;;;15.98;73.30
44839;BME280;30576;42.098;24.876;2022-09-30T05:20:55;99502.22;;;16.49;73.87
44839;BME280;30576;42.098;24.876;2022-09-30T05:23:25;99465.25;;;16.41;73.64
44839;BME280;30576;42.098;24.876;2022-09-30T05:25:51;99480.56;;;16.56;73.62
44839;BME280;30576;42.098;24.876;2022-09-30T05:28:17;99511.88;;;16.92;72.93
44839;BME280;30576;42.098;24.876;2022-09-30T05:30:43;99495.84;;;16.94;72.85
44839;BME280;30576;42.098;24.876;2022-09-30T05:33:10;99485.75;;;17.00;72.96
44839;BME280;30576;42.098;24.876;2022-09-30T05:35:40;99502.66;;;17.20;73.09
44839;BME280;30576;42.098;24.876;2022-09-30T05:38:07;99497.13;;;17.25;73.39
44839;BME280;30576;42.098;24.876;2022-09-30T05:40:36;99477.19;;;17.33;73.20
44839;BME280;30576;42.098;24.876;2022-09-30T05:43:02;99465.91;;;17.27;73.53
44839;BME280;30576;42.098;24.876;2022-09-30T05:45:28;99515.09;;;17.97;72.22
44839;BME280;30576;42.098;24.876;2022-09-30T05:47:54;99482.78;;;17.84;71.51
44839;BME280;30576;42.098;24.876;2022-09-30T05:50:20;99507.88;;;18.36;70.48
44839;BME280;30576;42.098;24.876;2022-09-30T05:52:46;99524.22;;;18.47;70.67
44839;BME280;30576;42.098;24.876;2022-09-30T05:55:13;99486.13;;;18.61;69.75
44839;BME280;30576;42.098;24.876;2022-09-30T05:57:38;99513.47;;;19.01;69.07
44839;BME280;30576;42.098;24.876;2022-09-30T06:00:05;99507.94;;;19.22;67.78
44839;BME280;30576;42.098;24.876;2022-09-30T06:02:30;99511.63;;;19.53;67.05
44839;BME280;30576;42.098;24.876;2022-09-30T06:04:56;99508.78;;;19.72;66.26
44839;BME280;30576;42.098;24.876;2022-09-30T06:07:21;99500.09;;;20.00;65.12
44839;BME280;30576;42.098;24.876;2022-09-30T06:09:47;99498.44;;;20.13;64.46
44839;BME280;30576;42.098;24.876;2022-09-30T06:12:13;99514.81;;;20.39;64.35
44839;BME280;30576;42.098;24.876;2022-09-30T06:14:39;99510.59;;;20.35;63.68
44839;BME280;30576;42.098;24.876;2022-09-30T06:17:05;99512.25;;;20.68;63.23
44839;BME280;30576;42.098;24.876;2022-09-30T06:19:31;99515.06;;;20.50;63.97
44839;BME280;30576;42.098;24.876;2022-09-30T06:21:57;99527.97;;;20.74;63.00
44839;BME280;30576;42.098;24.876;2022-09-30T06:24:22;99521.13;;;20.84;62.04
44839;BME280;30576;42.098;24.876;2022-09-30T06:26:48;99504.75;;;21.03;62.40
44839;BME280;30576;42.098;24.876;2022-09-30T06:29:14;99540.06;;;21.69;60.97
44839;BME280;30576;42.098;24.876;2022-09-30T06:31:39;99500.28;;;21.61;60.59
44839;BME280;30576;42.098;24.876;2022-09-30T06:34:05;99530.63;;;21.76;59.24
44839;BME280;30576;42.098;24.876;2022-09-30T06:36:31;99500.41;;;21.87;58.94
44839;BME280;30576;42.098;24.876;2022-09-30T06:38:59;99520.28;;;21.70;58.94
44839;BME280;30576;42.098;24.876;2022-09-30T06:41:25;99538.53;;;21.65;59.00
44839;BME280;30576;42.098;24.876;2022-09-30T06:43:52;99540.88;;;21.84;58.55
44839;BME280;30576;42.098;24.876;2022-09-30T06:46:18;99536.88;;;21.77;57.93
44839;BME280;30576;42.098;24.876;2022-09-30T06:48:49;99559.94;;;21.36;59.98
44839;BME280;30576;42.098;24.876;2022-09-30T06:51:17;99546.84;;;21.89;58.50
44839;BME280;30576;42.098;24.876;2022-09-30T06:53:43;99563.84;;;22.59;57.58
44839;BME280;30576;42.098;24.876;2022-09-30T06:56:08;99517.34;;;22.44;56.50
44839;BME280;30576;42.098;24.876;2022-09-30T06:58:33;99523.78;;;22.94;57.14
44839;BME280;30576;42.098;24.876;2022-09-30T07:01:01;99547.25;;;23.69;55.09
44839;BME280;30576;42.098;24.876;2022-09-30T07:03:30;99549.59;;;23.74;53.47
44839;BME280;30576;42.098;24.876;2022-09-30T07:06:00;99548.00;;;23.58;52.95
44839;BME280;30576;42.098;24.876;2022-09-30T07:08:27;99548.31;;;23.80;52.91
44839;BME280;30576;42.098;24.876;2022-09-30T07:10:56;99556.94;;;23.98;52.53
44839;BME280;30576;42.098;24.876;2022-09-30T07:13:22;99542.59;;;23.97;53.17
44839;BME280;30576;42.098;24.876;2022-09-30T07:15:48;99574.31;;;24.42;51.27
44839;BME280;30576;42.098;24.876;2022-09-30T07:18:16;99561.53;;;24.57;51.62
44839;BME280;30576;42.098;24.876;2022-09-30T07:20:51;99576.81;;;24.93;49.60
44839;BME280;30576;42.098;24.876;2022-09-30T07:23:18;99575.16;;;25.26;48.49
44839;BME280;30576;42.098;24.876;2022-09-30T07:25:55;99554.88;;;24.62;49.84
44839;BME280;30576;42.098;24.876;2022-09-30T07:28:25;99533.78;;;24.67;50.95
44839;BME280;30576;42.098;24.876;2022-09-30T07:30:55;99575.22;;;24.66;51.30
44839;BME280;30576;42.098;24.876;2022-09-30T07:33:21;99541.19;;;24.28;50.56
44839;BME280;30576;42.098;24.876;2022-09-30T07:35:58;99585.59;;;24.84;50.84
44839;BME280;30576;42.098;24.876;2022-09-30T07:38:26;99576.38;;;25.22;49.72
44839;BME280;30576;42.098;24.876;2022-09-30T07:43:23;99582.22;;;25.40;50.41
44839;BME280;30576;42.098;24.876;2022-09-30T07:45:49;99572.16;;;25.65;50.59
44839;BME280;30576;42.098;24.876;2022-09-30T07:48:16;99571.69;;;26.05;46.54
44839;BME280;30576;42.098;24.876;2022-09-30T07:51:00;99554.09;;;25.99;47.61
44839;BME280;30576;42.098;24.876;2022-09-30T07:53:25;99559.38;;;26.01;46.47
44839;BME280;30576;42.098;24.876;2022-09-30T07:55:51;99544.47;;;25.16;48.90
44839;BME280;30576;42.098;24.876;2022-09-30T07:58:16;99565.28;;;25.72;46.02
44839;BME280;30576;42.098;24.876;2022-09-30T08:00:42;99585.13;;;26.39;43.71
44839;BME280;30576;42.098;24.876;2022-09-30T08:03:08;99566.56;;;26.34;44.30
44839;BME280;30576;42.098;24.876;2022-09-30T08:05:41;99581.47;;;25.95;46.30
44839;BME280;30576;42.098;24.876;2022-09-30T08:08:09;99594.84;;;25.96;47.38
44839;BME280;30576;42.098;24.876;2022-09-30T08:10:35;99574.22;;;26.18;45.95
44839;BME280;30576;42.098;24.876;2022-09-30T08:13:00;99599.19;;;26.21;45.03
44839;BME280;30576;42.098;24.876;2022-09-30T08:15:26;99565.91;;;26.09;45.90
44839;BME280;30576;42.098;24.876;2022-09-30T08:17:52;99560.31;;;26.34;47.00
44839;BME280;30576;42.098;24.876;2022-09-30T08:20:17;99596.75;;;26.51;44.65
44839;BME280;30576;42.098;24.876;2022-09-30T08:22:43;99602.13;;;26.73;44.60
44839;BME280;30576;42.098;24.876;2022-09-30T08:25:08;99586.94;;;26.50;44.97
44839;BME280;30576;42.098;24.876;2022-09-30T08:27:34;99602.28;;;26.93;42.69
44839;BME280;30576;42.098;24.876;2022-09-30T08:29:59;99602.28;;;26.93;43.78
44839;BME280;30576;42.098;24.876;2022-09-30T08:32:24;99595.88;;;26.94;42.67
44839;BME280;30576;42.098;24.876;2022-09-30T08:34:50;99590.53;;;26.83;44.09
44839;BME280;30576;42.098;24.876;2022-09-30T08:37:15;99601.81;;;26.88;47.00
44839;BME280;30576;42.098;24.876;2022-09-30T08:39:41;99591.63;;;26.80;44.53
44839;BME280;30576;42.098;24.876;2022-09-30T08:42:17;99627.84;;;26.56;43.94
44839;BME280;30576;42.098;24.876;2022-09-30T08:44:46;99602.97;;;25.96;44.59
44839;BME280;30576;42.098;24.876;2022-09-30T08:47:29;99618.09;;;26.21;44.78
44839;BME280;30576;42.098;24.876;2022-09-30T08:50:07;99609.63;;;26.58;44.39
44839;BME280;30576;42.098;24.876;2022-09-30T08:52:44;99593.56;;;26.45;44.64
44839;BME280;30576;42.098;24.876;2022-09-30T08:55:20;99601.38;;;26.60;43.44
44839;BME280;30576;42.098;24.876;2022-09-30T08:57:47;99623.63;;;26.75;43.67
44839;BME280;30576;42.098;24.876;2022-09-30T09:00:15;99609.84;;;26.78;43.90
44839;BME280;30576;42.098;24.876;2022-09-30T09:05:16;99624.63;;;26.74;42.81
44839;BME280;30576;42.098;24.876;2022-09-30T09:08:11;99627.28;;;25.96;44.33
44839;BME280;30576;42.098;24.876;2022-09-30T09:10:49;99620.91;;;25.97;44.90
44839;BME280;30576;42.098;24.876;2022-09-30T09:16:14;99593.53;;;26.13;44.89
44839;BME280;30576;42.098;24.876;2022-09-30T09:24:17;99597.00;;;26.48;44.67
44839;BME280;30576;42.098;24.876;2022-09-30T09:26:43;99602.59;;;26.23;46.21
44839;BME280;30576;42.098;24.876;2022-09-30T09:31:53;99609.94;;;26.44;43.89
44839;BME280;30576;42.098;24.876;2022-09-30T09:34:21;99577.78;;;26.30;43.96
44839;BME280;30576;42.098;24.876;2022-09-30T09:37:13;99632.78;;;26.40;44.14
44839;BME280;30576;42.098;24.876;2022-09-30T09:42:28;99637.13;;;26.31;45.03
44839;BME280;30576;42.098;24.876;2022-09-30T09:45:04;99631.00;;;26.29;43.91
44839;BME280;30576;42.098;24.876;2022-09-30T09:47:32;99613.06;;;26.17;43.99
44839;BME280;30576;42.098;24.876;2022-09-30T09:50:00;99649.38;;;26.47;43.64
44839;BME280;30576;42.098;24.876;2022-09-30T09:52:59;99620.69;;;26.12;44.11
44839;BME280;30576;42.098;24.876;2022-09-30T09:55:27;99618.13;;;26.54;43.01
44839;BME280;30576;42.098;24.876;2022-09-30T09:58:10;99585.28;;;26.26;43.44
44839;BME280;30576;42.098;24.876;2022-09-30T10:00:39;99606.78;;;26.60;43.89
44839;BME280;30576;42.098;24.876;2022-09-30T10:03:39;99614.22;;;26.90;42.50
44839;BME280;30576;42.098;24.876;2022-09-30T10:08:54;99613.88;;;27.16;41.47
44839;BME280;30576;42.098;24.876;2022-09-30T10:11:23;99615.25;;;27.10;41.65
44839;BME280;30576;42.098;24.876;2022-09-30T10:13:52;99583.53;;;27.01;41.65
44839;BME280;30576;42.098;24.876;2022-09-30T10:16:34;99611.50;;;27.44;41.18
44839;BME280;30576;42.098;24.876;2022-09-30T10:19:02;99589.41;;;27.27;42.03
44839;BME280;30576;42.098;24.876;2022-09-30T10:21:29;99611.47;;;27.65;39.65
44839;BME280;30576;42.098;24.876;2022-09-30T10:23:55;99579.81;;;27.35;39.84
44839;BME280;30576;42.098;24.876;2022-09-30T10:26:26;99600.47;;;27.57;40.21
44839;BME280;30576;42.098;24.876;2022-09-30T10:31:26;99603.88;;;27.90;39.30
44839;BME280;30576;42.098;24.876;2022-09-30T10:34:02;99601.56;;;28.06;39.03
44839;BME280;30576;42.098;24.876;2022-09-30T10:36:35;99570.44;;;28.00;38.76
44839;BME280;30576;42.098;24.876;2022-09-30T10:41:36;99541.50;;;28.11;39.03
44839;BME280;30576;42.098;24.876;2022-09-30T10:44:17;99579.66;;;28.38;37.51
44839;BME280;30576;42.098;24.876;2022-09-30T10:46:46;99560.34;;;28.22;37.83
44839;BME280;30576;42.098;24.876;2022-09-30T10:49:26;99586.47;;;28.23;38.03
44839;BME280;30576;42.098;24.876;2022-09-30T10:51:54;99564.22;;;28.19;37.31
44839;BME280;30576;42.098;24.876;2022-09-30T10:54:47;99545.53;;;28.26;37.01
44839;BME280;30576;42.098;24.876;2022-09-30T10:57:28;99567.94;;;28.28;36.50
44839;BME280;30576;42.098;24.876;2022-09-30T11:00:03;99546.69;;;28.33;36.41
44839;BME280;30576;42.098;24.876;2022-09-30T11:02:38;99580.91;;;28.15;36.73
44839;BME280;30576;42.098;24.876;2022-09-30T11:07:50;99550.09;;;28.35;36.11
44839;BME280;30576;42.098;24.876;2022-09-30T11:10:33;99572.81;;;28.44;36.49
44839;BME280;30576;42.098;24.876;2022-09-30T11:13:09;99549.81;;;28.48;36.96
44839;BME280;30576;42.098;24.876;2022-09-30T11:18:18;99567.88;;;28.79;37.15
44839;BME280;30576;42.098;24.876;2022-09-30T11:20:53;99536.03;;;28.61;36.57
44839;BME280;30576;42.098;24.876;2022-09-30T11:23:34;99564.44;;;28.67;35.44
44839;BME280;30576;42.098;24.876;2022-09-30T11:26:16;99552.00;;;28.84;35.44
44839;BME280;30576;42.098;24.876;2022-09-30T11:29:26;99555.88;;;28.62;34.35
44839;BME280;30576;42.098;24.876;2022-09-30T11:34:41;99574.69;;;28.53;33.87
44839;BME280;30576;42.098;24.876;2022-09-30T11:46:28;99554.44;;;28.67;34.07
44839;BME280;30576;42.098;24.876;2022-09-30T11:49:05;99524.47;;;28.69;33.13
44839;BME280;30576;42.098;24.876;2022-09-30T11:57:18;99545.41;;;29.06;33.56
44839;BME280;30576;42.098;24.876;2022-09-30T11:59:50;99520.28;;;28.94;32.94
44839;BME280;30576;42.098;24.876;2022-09-30T12:02:37;99545.69;;;29.13;34.31
44839;BME280;30576;42.098;24.876;2022-09-30T12:05:38;99545.22;;;29.37;31.01
44839;BME280;30576;42.098;24.876;2022-09-30T12:08:14;99554.38;;;29.16;32.42
44839;BME280;30576;42.098;24.876;2022-09-30T12:10:57;99543.13;;;29.01;31.75
44839;BME280;30576;42.098;24.876;2022-09-30T12:13:34;99531.41;;;29.10;31.93
44839;BME280;30576;42.098;24.876;2022-09-30T12:16:02;99547.81;;;29.19;31.78
44839;BME280;30576;42.098;24.876;2022-09-30T12:18:35;99518.13;;;28.98;32.16
44839;BME280;30576;42.098;24.876;2022-09-30T12:21:28;99534.25;;;28.99;32.18
44839;BME280;30576;42.098;24.876;2022-09-30T12:26:33;99542.28;;;29.58;30.32
44839;BME280;30576;42.098;24.876;2022-09-30T12:29:10;99518.41;;;29.61;30.52
44839;BME280;30576;42.098;24.876;2022-09-30T12:35:01;99540.63;;;29.75;30.10
44839;BME280;30576;42.098;24.876;2022-09-30T12:46:19;99557.03;;;29.55;30.81
44839;BME280;30576;42.098;24.876;2022-09-30T12:48:57;99542.94;;;29.70;30.60
44839;BME280;30576;42.098;24.876;2022-09-30T12:51:29;99493.44;;;29.76;30.32
44839;BME280;30576;42.098;24.876;2022-09-30T12:54:04;99514.16;;;29.87;29.89
44839;BME280;30576;42.098;24.876;2022-09-30T12:56:40;99529.53;;;29.96;30.07
44839;BME280;30576;42.098;24.876;2022-09-30T12:59:07;99525.75;;;29.79;32.14
44839;BME280;30576;42.098;24.876;2022-09-30T13:01:38;99538.66;;;30.23;31.03
44839;BME280;30576;42.098;24.876;2022-09-30T13:11:42;99516.72;;;29.88;30.20
44839;BME280;30576;42.098;24.876;2022-09-30T13:16:59;99532.66;;;30.01;30.01
44839;BME280;30576;42.098;24.876;2022-09-30T13:19:38;99536.25;;;30.02;30.88
44839;BME280;30576;42.098;24.876;2022-09-30T13:30:30;99550.78;;;29.82;30.05
44839;BME280;30576;42.098;24.876;2022-09-30T13:40:47;99520.78;;;30.02;29.50
44839;BME280;30576;42.098;24.876;2022-09-30T13:43:23;99522.81;;;30.18;29.64
44839;BME280;30576;42.098;24.876;2022-09-30T13:45:52;99545.91;;;30.32;30.17
44839;BME280;30576;42.098;24.876;2022-09-30T13:48:28;99532.63;;;30.29;29.47
44839;BME280;30576;42.098;24.876;2022-09-30T13:50:58;99534.56;;;30.36;28.63
44839;BME280;30576;42.098;24.876;2022-09-30T13:53:31;99532.09;;;30.25;29.46
44839;BME280;30576;42.098;24.876;2022-09-30T13:56:05;99536.00;;;30.41;29.47
44839;BME280;30576;42.098;24.876;2022-09-30T14:04:49;99549.56;;;30.23;30.75
44839;BME280;30576;42.098;24.876;2022-09-30T14:22:24;99530.78;;;29.74;31.22
44839;BME280;30576;42.098;24.876;2022-09-30T14:24:36;99560.50;;;29.85;30.13
44839;BME280;30576;42.098;24.876;2022-09-30T14:32:25;99542.88;;;30.17;30.34
44839;BME280;30576;42.098;24.876;2022-09-30T14:34:54;99559.06;;;30.36;29.54
44839;BME280;30576;42.098;24.876;2022-09-30T14:37:25;99581.56;;;30.57;29.40
44839;BME280;30576;42.098;24.876;2022-09-30T14:39:52;99568.28;;;30.53;29.50
44839;BME280;30576;42.098;24.876;2022-09-30T14:42:31;99558.25;;;30.54;29.68
44839;BME280;30576;42.098;24.876;2022-09-30T14:44:59;99576.28;;;30.55;29.27
44839;BME280;30576;42.098;24.876;2022-09-30T14:47:35;99581.34;;;30.68;29.35
44839;BME280;30576;42.098;24.876;2022-09-30T14:50:08;99553.88;;;30.61;28.74
44839;BME280;30576;42.098;24.876;2022-09-30T14:52:42;99570.06;;;30.63;28.46
44839;BME280;30576;42.098;24.876;2022-09-30T14:55:23;99602.72;;;30.63;28.58
44839;BME280;30576;42.098;24.876;2022-09-30T14:57:52;99557.22;;;30.37;28.93
44839;BME280;30576;42.098;24.876;2022-09-30T15:00:29;99593.72;;;30.34;30.01
44839;BME280;30576;42.098;24.876;2022-09-30T15:02:56;99586.63;;;30.24;30.45
44839;BME280;30576;42.098;24.876;2022-09-30T15:05:23;99564.69;;;30.07;30.71
44839;BME280;30576;42.098;24.876;2022-09-30T15:07:49;99592.78;;;30.26;30.42
44839;BME280;30576;42.098;24.876;2022-09-30T15:10:22;99591.03;;;30.07;30.40
44839;BME280;30576;42.098;24.876;2022-09-30T15:12:49;99595.84;;;30.13;30.58
44839;BME280;30576;42.098;24.876;2022-09-30T15:15:26;99591.31;;;30.04;31.06
44839;BME280;30576;42.098;24.876;2022-09-30T15:17:56;99575.81;;;29.76;31.57
44839;BME280;30576;42.098;24.876;2022-09-30T15:20:32;99595.94;;;29.93;31.52
44839;BME280;30576;42.098;24.876;2022-09-30T15:23:00;99574.13;;;29.75;31.68
44839;BME280;30576;42.098;24.876;2022-09-30T15:25:28;99575.91;;;29.57;32.09
44839;BME280;30576;42.098;24.876;2022-09-30T15:27:54;99566.78;;;29.48;32.00
44839;BME280;30576;42.098;24.876;2022-09-30T15:30:27;99567.22;;;29.43;32.39
44839;BME280;30576;42.098;24.876;2022-09-30T15:33:03;99586.53;;;29.40;32.12
44839;BME280;30576;42.098;24.876;2022-09-30T15:35:29;99601.09;;;29.39;32.21
44839;BME280;30576;42.098;24.876;2022-09-30T15:38:29;99593.13;;;29.28;32.36
44839;BME280;30576;42.098;24.876;2022-09-30T15:41:08;99569.69;;;28.98;32.92
44839;BME280;30576;42.098;24.876;2022-09-30T15:48:44;99590.00;;;28.64;33.89
44839;BME280;30576;42.098;24.876;2022-09-30T15:51:41;99620.13;;;28.71;35.35
44839;BME280;30576;42.098;24.876;2022-09-30T15:56:38;99626.16;;;28.24;37.54
44839;BME280;30576;42.098;24.876;2022-09-30T15:59:07;99585.56;;;27.72;38.30
44839;BME280;30576;42.098;24.876;2022-09-30T16:01:40;99637.47;;;27.77;39.66
44839;BME280;30576;42.098;24.876;2022-09-30T16:17:34;99640.00;;;26.62;42.46
44839;BME280;30576;42.098;24.876;2022-09-30T16:20:02;99652.69;;;26.50;41.90
44839;BME280;30576;42.098;24.876;2022-09-30T16:25:31;99671.41;;;26.19;41.69